createdAt,value
2018-12-13T00:01:09.438Z,35.42
2018-12-13T00:03:38.795Z,35.12
2018-12-13T00:06:08.116Z,34.80
2018-12-13T00:08:37.629Z,35.23
2018-12-13T00:11:07.007Z,34.98
2018-12-13T00:13:36.279Z,35.18
2018-12-13T00:16:05.520Z,34.58
2018-12-13T00:18:34.931Z,34.92
2018-12-13T00:21:04.334Z,34.60
2018-12-13T00:23:33.640Z,34.56
2018-12-13T00:26:03.156Z,34.59
2018-12-13T00:28:32.528Z,35.06
2018-12-13T00:31:01.852Z,34.82
2018-12-13T00:33:31.252Z,34.82
2018-12-13T00:36:00.664Z,34.71
2018-12-13T00:38:30.244Z,34.48
2018-12-13T00:40:59.752Z,34.42
2018-12-13T00:43:29.269Z,34.34
2018-12-13T00:45:58.660Z,34.29
2018-12-13T00:48:27.977Z,34.41
2018-12-13T00:50:57.275Z,34.75
2018-12-13T00:53:26.556Z,34.79
2018-12-13T00:55:55.801Z,34.85
2018-12-13T00:58:25.264Z,34.20
2018-12-13T01:00:56.687Z,34.37
2018-12-13T01:03:26.043Z,34.83
2018-12-13T01:05:55.350Z,34.35
2018-12-13T01:08:25.112Z,34.73
2018-12-13T01:10:54.347Z,34.30
2018-12-13T01:13:23.849Z,34.25
2018-12-13T01:15:53.280Z,34.31
2018-12-13T01:18:22.521Z,34.49
2018-12-13T01:20:51.787Z,34.59
2018-12-13T01:23:21.255Z,34.29
2018-12-13T01:25:50.582Z,34.66
2018-12-13T01:28:19.878Z,34.23
2018-12-13T01:30:49.281Z,34.18
2018-12-13T01:33:18.587Z,34.25
2018-12-13T01:35:48.063Z,34.41
2018-12-13T01:38:17.391Z,34.28
2018-12-13T01:40:46.685Z,34.61
2018-12-13T01:43:15.890Z,34.58
2018-12-13T01:45:45.175Z,34.67
2018-12-13T01:48:14.499Z,34.83
2018-12-13T01:50:43.936Z,34.32
2018-12-13T01:53:13.291Z,34.79
2018-12-13T01:55:42.584Z,34.10
2018-12-13T01:58:12.009Z,34.78
2018-12-13T02:00:41.398Z,34.56
2018-12-13T02:03:10.699Z,34.07
2018-12-13T02:05:40.099Z,34.31
2018-12-13T02:08:09.412Z,34.20
2018-12-13T02:10:38.926Z,34.38
2018-12-13T02:13:08.404Z,34.52
2018-12-13T02:15:37.738Z,34.46
2018-12-13T02:18:07.129Z,34.17
2018-12-13T02:20:36.430Z,34.39
2018-12-13T02:23:05.829Z,34.37
2018-12-13T02:25:35.131Z,33.86
2018-12-13T02:28:04.342Z,34.28
2018-12-13T02:30:33.626Z,34.33
2018-12-13T02:33:02.968Z,34.42
2018-12-13T02:35:32.140Z,33.99
2018-12-13T02:38:01.521Z,33.79
2018-12-13T02:40:30.840Z,33.89
2018-12-13T02:43:00.248Z,33.82
2018-12-13T02:45:29.560Z,33.97
2018-12-13T02:47:58.960Z,33.86
2018-12-13T02:50:28.255Z,34.05
2018-12-13T02:52:57.561Z,34.15
2018-12-13T02:55:26.960Z,34.45
2018-12-13T02:57:56.366Z,33.92
2018-12-13T03:00:25.751Z,34.20
2018-12-13T03:02:55.069Z,33.88
2018-12-13T03:05:24.356Z,33.98
2018-12-13T03:07:53.652Z,33.81
2018-12-13T03:10:23.055Z,33.71
2018-12-13T03:12:52.456Z,34.15
2018-12-13T03:15:21.956Z,34.07
2018-12-13T03:17:51.278Z,34.16
2018-12-13T03:20:20.555Z,34.10
2018-12-13T03:22:49.770Z,34.15
2018-12-13T03:25:18.950Z,33.69
2018-12-13T03:27:48.175Z,34.30
2018-12-13T03:30:17.481Z,34.17
2018-12-13T03:32:46.682Z,34.09
2018-12-13T03:35:15.981Z,34.06
2018-12-13T03:37:45.267Z,33.96
2018-12-13T03:40:14.667Z,33.63
2018-12-13T03:42:44.075Z,33.53
2018-12-13T03:45:13.391Z,33.86
2018-12-13T03:47:42.775Z,33.28
2018-12-13T03:50:11.977Z,33.67
2018-12-13T03:52:41.292Z,33.59
2018-12-13T03:55:10.687Z,33.79
2018-12-13T03:57:39.884Z,33.75
2018-12-13T04:00:09.096Z,33.61
2018-12-13T04:02:38.383Z,33.22
2018-12-13T04:05:07.690Z,33.12
2018-12-13T04:07:37.183Z,33.86
2018-12-13T04:10:06.651Z,33.55
2018-12-13T04:12:35.902Z,33.34
2018-12-13T04:15:05.417Z,33.38
2018-12-13T04:17:34.808Z,33.40
2018-12-13T04:20:04.202Z,33.57
2018-12-13T04:22:33.320Z,33.17
2018-12-13T04:25:02.705Z,33.80
2018-12-13T04:27:31.696Z,33.83
2018-12-13T04:30:00.913Z,33.59
2018-12-13T04:32:30.211Z,33.26
2018-12-13T04:34:59.521Z,33.72
2018-12-13T04:37:35.124Z,33.07
2018-12-13T04:40:00.202Z,33.63
2018-12-13T04:42:29.560Z,33.11
2018-12-13T04:44:58.864Z,33.58
2018-12-13T04:47:28.047Z,33.33
2018-12-13T04:49:57.248Z,33.58
2018-12-13T04:52:26.465Z,33.10
2018-12-13T04:54:55.812Z,33.04
2018-12-13T04:57:25.160Z,32.86
2018-12-13T04:59:54.551Z,33.25
2018-12-13T05:02:23.891Z,33.08
2018-12-13T05:04:53.271Z,33.46
2018-12-13T05:07:22.568Z,33.24
2018-12-13T05:09:51.874Z,33.23
2018-12-13T05:12:21.389Z,33.24
2018-12-13T05:14:50.637Z,33.50
2018-12-13T05:17:19.765Z,33.37
2018-12-13T05:19:49.376Z,33.40
2018-12-13T05:22:18.584Z,33.60
2018-12-13T05:24:47.863Z,33.27
2018-12-13T05:27:17.220Z,33.81
2018-12-13T05:29:46.414Z,33.59
2018-12-13T05:32:15.879Z,33.98
2018-12-13T05:34:44.991Z,34.04
2018-12-13T05:37:14.495Z,33.79
2018-12-13T05:39:43.787Z,33.63
2018-12-13T05:42:12.892Z,33.82
2018-12-13T05:44:42.163Z,33.63
2018-12-13T05:47:11.485Z,33.84
2018-12-13T05:49:40.604Z,33.60
2018-12-13T05:52:09.783Z,33.68
2018-12-13T05:54:39.093Z,33.29
2018-12-13T05:57:08.283Z,33.04
2018-12-13T05:59:37.498Z,33.61
2018-12-13T06:02:06.608Z,33.17
2018-12-13T06:04:35.901Z,32.94
2018-12-13T06:07:05.137Z,32.97
2018-12-13T06:09:34.375Z,33.17
2018-12-13T06:12:03.803Z,31.91
2018-12-13T06:14:33.093Z,33.35
2018-12-13T06:17:02.485Z,33.25
2018-12-13T06:19:31.718Z,32.61
2018-12-13T06:22:00.879Z,32.80
2018-12-13T06:24:30.098Z,32.90
2018-12-13T06:26:59.393Z,33.00
2018-12-13T06:29:28.604Z,33.29
2018-12-13T06:31:57.887Z,28.28
2018-12-13T06:34:27.136Z,30.95
2018-12-13T06:36:56.395Z,32.38
2018-12-13T06:39:25.919Z,32.67
2018-12-13T06:41:55.200Z,32.93
2018-12-13T06:44:24.606Z,33.21
2018-12-13T06:46:54.207Z,32.76
2018-12-13T06:49:23.521Z,33.07
2018-12-13T06:51:52.822Z,33.09
2018-12-13T06:54:22.163Z,33.01
2018-12-13T06:56:51.515Z,33.37
2018-12-13T06:59:20.916Z,33.84
2018-12-13T07:01:50.316Z,34.41
2018-12-13T07:04:19.614Z,34.66
2018-12-13T07:06:48.920Z,35.92
2018-12-13T07:09:18.240Z,37.50
2018-12-13T07:11:47.531Z,36.42
2018-12-13T07:14:16.836Z,35.86
2018-12-13T07:16:46.135Z,34.99
2018-12-13T07:19:15.328Z,35.62
2018-12-13T07:21:44.534Z,34.63
2018-12-13T07:24:13.840Z,34.68
2018-12-13T07:26:43.147Z,35.60
2018-12-13T07:29:12.476Z,36.18
2018-12-13T07:31:42.108Z,34.56
2018-12-13T07:34:11.455Z,37.68
2018-12-13T07:36:40.880Z,35.87
2018-12-13T07:39:10.383Z,35.94
2018-12-13T07:41:39.701Z,38.94
2018-12-13T07:44:09.156Z,40.57
2018-12-13T07:46:38.564Z,41.46
2018-12-13T07:49:07.976Z,42.05
2018-12-13T07:51:37.376Z,42.63
2018-12-13T07:54:06.689Z,42.67
2018-12-13T07:56:35.980Z,42.66
2018-12-13T07:59:05.496Z,42.71
2018-12-13T08:01:34.893Z,41.53
2018-12-13T08:04:04.296Z,41.99
2018-12-13T08:06:33.607Z,42.69
2018-12-13T08:09:03.255Z,41.26
2018-12-13T08:11:32.587Z,42.49
2018-12-13T08:14:02.047Z,42.68
2018-12-13T08:16:31.423Z,42.62
2018-12-13T08:19:00.733Z,43.07
2018-12-13T08:21:30.007Z,42.64
2018-12-13T08:23:59.275Z,42.40
2018-12-13T08:26:28.506Z,42.91
2018-12-13T08:28:57.916Z,42.85
2018-12-13T08:31:27.343Z,43.42
2018-12-13T08:33:56.557Z,42.37
2018-12-13T08:36:25.843Z,42.65
2018-12-13T08:38:55.337Z,42.53
2018-12-13T08:41:24.680Z,42.31
2018-12-13T08:43:54.011Z,42.52
2018-12-13T08:46:23.451Z,42.83
2018-12-13T08:48:53.016Z,43.24
2018-12-13T08:51:22.365Z,43.97
2018-12-13T08:53:51.755Z,43.03
2018-12-13T08:56:21.167Z,43.23
2018-12-13T08:58:50.456Z,43.76
2018-12-13T09:01:19.882Z,44.83
2018-12-13T09:03:49.233Z,45.97
2018-12-13T09:06:18.474Z,45.61
2018-12-13T09:08:47.735Z,46.07
2018-12-13T09:11:17.052Z,45.77
2018-12-13T09:13:46.459Z,45.64
2018-12-13T09:16:15.781Z,46.11
2018-12-13T09:18:45.111Z,45.09
2018-12-13T09:21:14.409Z,46.08
2018-12-13T09:23:43.672Z,45.63
2018-12-13T09:26:13.091Z,46.64
2018-12-13T09:28:42.455Z,46.12
2018-12-13T09:31:11.604Z,46.40
2018-12-13T09:33:41.082Z,44.52
2018-12-13T09:36:10.588Z,46.94
2018-12-13T09:38:40.111Z,47.09
2018-12-13T09:41:09.624Z,47.32
2018-12-13T09:43:38.913Z,47.97
2018-12-13T09:46:08.115Z,47.71
2018-12-13T09:48:37.412Z,47.68
2018-12-13T09:51:06.824Z,47.74
2018-12-13T09:53:36.202Z,47.26
2018-12-13T09:56:05.512Z,47.72
2018-12-13T09:58:34.821Z,44.62
2018-12-13T10:01:04.312Z,44.79
2018-12-13T10:03:33.529Z,45.80
2018-12-13T10:06:02.735Z,45.78
2018-12-13T10:08:31.928Z,43.92
2018-12-13T10:11:01.128Z,43.37
2018-12-13T10:13:30.619Z,45.84
2018-12-13T10:15:59.829Z,46.78
2018-12-13T10:18:29.216Z,45.39
2018-12-13T10:20:58.424Z,45.36
2018-12-13T10:23:27.824Z,44.96
2018-12-13T10:25:59.638Z,42.68
2018-12-13T10:28:28.386Z,46.21
2018-12-13T10:30:57.785Z,43.34
2018-12-13T10:33:27.072Z,45.14
2018-12-13T10:35:56.392Z,45.90
2018-12-13T10:38:25.802Z,45.50
2018-12-13T10:40:54.996Z,45.60
2018-12-13T10:43:24.185Z,45.65
2018-12-13T10:45:53.491Z,46.06
2018-12-13T10:48:22.780Z,46.17
2018-12-13T10:50:52.009Z,47.27
2018-12-13T10:53:21.392Z,47.05
2018-12-13T10:55:50.688Z,46.73
2018-12-13T10:58:19.983Z,46.15
2018-12-13T11:01:58.226Z,46.09
2018-12-13T11:04:27.580Z,45.76
2018-12-13T11:06:56.792Z,46.54
2018-12-13T11:09:26.100Z,45.76
2018-12-13T11:11:55.448Z,45.94
2018-12-13T11:14:24.836Z,46.31
2018-12-13T11:16:54.128Z,46.09
2018-12-13T11:19:23.404Z,46.94
2018-12-13T11:21:52.793Z,46.50
2018-12-13T11:24:22.078Z,46.61
2018-12-13T11:26:51.449Z,47.15
2018-12-13T11:29:34.480Z,46.72
2018-12-13T11:32:03.968Z,46.58
2018-12-13T11:34:33.385Z,46.62
2018-12-13T11:37:02.677Z,47.06
2018-12-13T11:39:31.976Z,37.95
2018-12-13T11:42:01.154Z,37.87
2018-12-13T11:44:30.463Z,40.53
2018-12-13T11:46:59.963Z,42.13
2018-12-13T11:49:29.347Z,44.32
2018-12-13T11:51:58.642Z,42.04
2018-12-13T11:54:39.994Z,44.44
2018-12-13T11:57:09.256Z,44.54
2018-12-13T11:59:38.771Z,44.17
2018-12-13T12:02:08.191Z,44.59
2018-12-13T12:04:37.378Z,44.22
2018-12-13T12:07:06.683Z,46.47
2018-12-13T12:09:36.164Z,47.33
2018-12-13T12:12:05.589Z,47.30
2018-12-13T12:14:34.887Z,47.19
2018-12-13T12:17:04.310Z,46.54
2018-12-13T12:19:33.572Z,47.20
2018-12-13T12:22:02.892Z,47.75
2018-12-13T12:24:32.270Z,42.68
2018-12-13T12:27:01.590Z,40.64
2018-12-13T12:29:31.023Z,46.93
2018-12-13T12:32:00.303Z,46.04
2018-12-13T12:34:29.585Z,46.56
2018-12-13T12:36:58.892Z,45.97
2018-12-13T12:39:28.307Z,42.24
2018-12-13T12:41:57.494Z,45.38
2018-12-13T12:44:30.736Z,43.35
2018-12-13T12:47:00.115Z,41.18
2018-12-13T12:49:29.408Z,41.53
2018-12-13T12:51:58.716Z,44.61
2018-12-13T12:54:27.895Z,45.43
2018-12-13T12:56:57.413Z,45.98
2018-12-13T12:59:26.783Z,46.98
2018-12-13T13:01:56.117Z,47.09
2018-12-13T13:04:25.510Z,46.91
2018-12-13T13:06:54.913Z,44.80
2018-12-13T13:09:25.221Z,43.98
2018-12-13T13:11:54.755Z,43.84
2018-12-13T13:14:24.031Z,43.00
2018-12-13T13:16:53.239Z,43.47
2018-12-13T13:19:22.647Z,42.70
2018-12-13T13:21:51.853Z,42.30
2018-12-13T13:24:21.258Z,42.63
2018-12-13T13:26:50.763Z,41.76
2018-12-13T13:29:20.152Z,41.90
2018-12-13T13:31:49.327Z,41.63
2018-12-13T13:34:18.651Z,41.96
2018-12-13T13:36:47.592Z,41.93
2018-12-13T13:39:16.955Z,42.03
2018-12-13T13:41:46.148Z,41.65
2018-12-13T13:44:15.816Z,41.44
2018-12-13T13:46:45.216Z,40.97
2018-12-13T13:49:14.555Z,40.86
2018-12-13T13:51:43.864Z,41.15
2018-12-13T13:54:13.215Z,41.04
2018-12-13T13:56:42.607Z,40.73
2018-12-13T13:59:11.901Z,40.62
2018-12-13T14:01:41.181Z,40.86
2018-12-13T14:04:10.492Z,39.87
2018-12-13T14:06:39.825Z,39.68
2018-12-13T14:09:09.099Z,40.26
2018-12-13T14:11:38.488Z,40.51
2018-12-13T14:14:07.884Z,40.21
2018-12-13T14:16:37.235Z,40.05
2018-12-13T14:19:06.492Z,39.53
2018-12-13T14:21:35.836Z,39.91
2018-12-13T14:24:05.101Z,40.13
2018-12-13T14:26:34.295Z,39.23
2018-12-13T14:29:03.700Z,39.93
2018-12-13T14:31:34.608Z,39.60
2018-12-13T14:34:03.930Z,39.79
2018-12-13T14:36:33.246Z,39.48
2018-12-13T14:39:02.701Z,39.16
2018-12-13T14:41:31.951Z,39.69
2018-12-13T14:44:01.247Z,39.19
2018-12-13T14:46:30.559Z,38.98
2018-12-13T14:48:59.847Z,39.40
2018-12-13T14:51:29.263Z,39.02
2018-12-13T14:53:58.555Z,38.93
2018-12-13T14:56:27.844Z,38.91
2018-12-13T14:58:57.060Z,39.01
2018-12-13T15:01:26.877Z,38.97
2018-12-13T15:03:56.468Z,39.13
2018-12-13T15:06:25.859Z,39.49
2018-12-13T15:08:55.197Z,39.22
2018-12-13T15:11:24.575Z,39.16
2018-12-13T15:13:53.905Z,39.37
2018-12-13T15:16:23.187Z,39.40
2018-12-13T15:18:52.391Z,39.47
2018-12-13T15:21:21.693Z,39.28
2018-12-13T15:23:50.913Z,39.18
2018-12-13T15:26:20.379Z,38.49
2018-12-13T15:28:49.703Z,38.73
2018-12-13T15:31:19.096Z,38.26
2018-12-13T15:33:48.505Z,38.82
2018-12-13T15:36:17.803Z,38.30
2018-12-13T15:38:47.199Z,38.61
2018-12-13T15:41:16.406Z,38.17
2018-12-13T15:43:45.647Z,38.57
2018-12-13T15:46:14.800Z,38.79
2018-12-13T15:48:44.200Z,38.36
2018-12-13T15:51:13.591Z,38.26
2018-12-13T15:53:42.905Z,38.23
2018-12-13T15:56:12.295Z,37.94
2018-12-13T15:58:41.518Z,38.27
2018-12-13T16:01:10.911Z,38.19
2018-12-13T16:03:40.231Z,38.29
2018-12-13T16:06:09.608Z,37.92
2018-12-13T16:08:38.892Z,38.15
2018-12-13T16:11:08.102Z,37.99
2018-12-13T16:13:37.335Z,37.64
2018-12-13T16:16:07.426Z,37.90
2018-12-13T16:18:36.700Z,37.78
2018-12-13T16:21:06.050Z,37.39
2018-12-13T16:23:35.444Z,37.88
2018-12-13T16:26:04.731Z,37.82
2018-12-13T16:28:34.048Z,37.64
2018-12-13T16:31:03.240Z,37.55
2018-12-13T16:33:32.457Z,37.46
2018-12-13T16:36:01.880Z,37.71
2018-12-13T16:38:31.145Z,37.30
2018-12-13T16:41:00.357Z,37.25
2018-12-13T16:43:29.651Z,37.65
2018-12-13T16:45:58.855Z,37.49
2018-12-13T16:48:28.202Z,37.24
2018-12-13T16:50:57.554Z,36.98
2018-12-13T16:53:26.971Z,37.30
2018-12-13T16:55:56.360Z,36.70
2018-12-13T16:58:25.471Z,36.80
2018-12-13T17:00:54.863Z,36.42
2018-12-13T17:03:36.652Z,36.57
2018-12-13T17:06:06.800Z,36.94
2018-12-13T17:08:36.080Z,36.52
2018-12-13T17:11:05.592Z,36.66
2018-12-13T17:13:34.822Z,36.88
2018-12-13T17:16:03.989Z,36.38
2018-12-13T17:18:33.314Z,36.01
2018-12-13T17:21:02.854Z,35.52
2018-12-13T17:23:32.395Z,35.30
2018-12-13T17:26:03.242Z,35.27
2018-12-13T17:28:33.983Z,35.12
2018-12-13T17:31:03.493Z,34.82
2018-12-13T17:33:32.889Z,34.67
2018-12-13T17:36:02.273Z,34.52
2018-12-13T17:38:31.589Z,34.61
2018-12-13T17:41:00.978Z,34.79
2018-12-13T17:43:30.179Z,34.63
2018-12-13T17:45:59.905Z,34.11
2018-12-13T17:48:29.102Z,34.73
2018-12-13T17:50:58.306Z,35.56
2018-12-13T17:53:28.007Z,35.65
2018-12-13T17:55:57.708Z,35.91
2018-12-13T17:58:27.020Z,36.13
2018-12-13T18:00:56.319Z,37.16
2018-12-13T18:03:25.820Z,36.99
2018-12-13T18:05:55.014Z,37.34
2018-12-13T18:08:25.121Z,37.54
2018-12-13T18:10:55.140Z,37.78
2018-12-13T18:13:24.567Z,37.86
2018-12-13T18:15:54.065Z,37.77
2018-12-13T18:18:23.283Z,37.56
2018-12-13T18:20:52.581Z,37.64
2018-12-13T18:23:22.863Z,37.58
2018-12-13T18:25:52.094Z,37.59
2018-12-13T18:28:21.298Z,37.60
2018-12-13T18:30:50.906Z,38.10
2018-12-13T18:33:20.476Z,38.14
2018-12-13T18:35:49.941Z,38.02
2018-12-13T18:38:20.446Z,38.46
2018-12-13T18:40:50.274Z,38.91
2018-12-13T18:43:20.341Z,38.69
2018-12-13T18:45:49.695Z,38.85
2018-12-13T18:48:19.239Z,39.00
2018-12-13T18:50:49.859Z,39.37
2018-12-13T18:53:19.376Z,39.71
2018-12-13T18:55:49.574Z,39.36
2018-12-13T18:58:19.067Z,40.45
2018-12-13T19:00:48.447Z,40.37
2018-12-13T19:03:18.085Z,40.91
2018-12-13T19:05:47.790Z,41.11
2018-12-13T19:08:17.249Z,40.91
2018-12-13T19:10:46.961Z,41.29
2018-12-13T19:13:16.260Z,40.85
2018-12-13T19:15:45.921Z,40.85
2018-12-13T19:18:15.318Z,41.58
2018-12-13T19:20:45.621Z,41.43
2018-12-13T19:23:15.661Z,41.47
2018-12-13T19:25:46.405Z,41.86
2018-12-13T19:28:15.749Z,41.87
2018-12-13T19:30:45.184Z,41.85
2018-12-13T19:33:14.464Z,41.73
2018-12-13T19:35:44.711Z,41.09
2018-12-13T19:38:14.155Z,41.10
2018-12-13T19:40:48.360Z,41.27
2018-12-13T19:43:15.346Z,40.88
2018-12-13T19:45:45.293Z,40.79
2018-12-13T19:48:15.053Z,40.72
2018-12-13T19:50:45.247Z,41.04
2018-12-13T19:53:14.801Z,40.74
2018-12-13T19:55:44.352Z,40.50
2018-12-13T19:58:13.548Z,40.82
2018-12-13T20:00:43.300Z,40.86
2018-12-13T20:03:13.060Z,40.69
2018-12-13T20:05:42.504Z,40.80
2018-12-13T20:08:11.991Z,40.83
2018-12-13T20:10:41.748Z,40.29
2018-12-13T20:13:12.245Z,40.14
2018-12-13T20:15:41.724Z,39.48
2018-12-13T20:18:12.655Z,39.28
2018-12-13T20:20:42.188Z,38.65
2018-12-13T20:23:11.404Z,38.79
2018-12-13T20:25:41.068Z,38.46
2018-12-13T20:28:11.418Z,38.58
2018-12-13T20:30:41.096Z,38.26
2018-12-13T20:33:10.248Z,37.93
2018-12-13T20:35:39.591Z,38.15
2018-12-13T20:38:08.917Z,38.41
2018-12-13T20:40:38.332Z,38.51
2018-12-13T20:43:07.623Z,38.33
2018-12-13T20:45:36.932Z,38.61
2018-12-13T20:48:06.319Z,38.86
2018-12-13T20:50:35.539Z,38.88
2018-12-13T20:53:04.860Z,39.17
2018-12-13T20:55:34.588Z,39.14
2018-12-13T20:58:03.940Z,39.44
2018-12-13T21:00:33.248Z,39.13
2018-12-13T21:03:03.147Z,39.57
2018-12-13T21:05:32.567Z,39.80
2018-12-13T21:08:06.647Z,39.76
2018-12-13T21:10:36.184Z,39.26
2018-12-13T21:13:05.507Z,39.22
2018-12-13T21:15:34.804Z,39.69
2018-12-13T21:18:04.275Z,39.67
2018-12-13T21:20:33.693Z,39.66
2018-12-13T21:23:02.980Z,39.33
2018-12-13T21:25:32.310Z,39.21
2018-12-13T21:28:01.700Z,39.14
2018-12-13T21:30:31.028Z,38.98
2018-12-13T21:33:00.623Z,39.01
2018-12-13T21:35:30.220Z,39.09
2018-12-13T21:37:59.645Z,38.85
2018-12-13T21:40:28.925Z,39.20
2018-12-13T21:42:58.239Z,39.14
2018-12-13T21:45:27.636Z,39.34
2018-12-13T21:47:57.137Z,39.13
2018-12-13T21:50:26.635Z,38.61
2018-12-13T21:52:56.035Z,38.75
2018-12-13T21:55:25.247Z,38.90
2018-12-13T21:57:54.752Z,39.13
2018-12-13T22:00:24.147Z,39.14
2018-12-13T22:02:53.484Z,38.97
2018-12-13T22:05:22.871Z,38.99
2018-12-13T22:07:52.174Z,38.57
2018-12-13T22:10:21.571Z,38.75
2018-12-13T22:12:50.883Z,39.26
2018-12-13T22:15:20.204Z,38.72
2018-12-13T22:17:49.667Z,39.05
2018-12-13T22:20:18.989Z,39.21
2018-12-13T22:22:48.288Z,39.03
2018-12-13T22:25:17.609Z,38.65
2018-12-13T22:27:47.076Z,39.17
2018-12-13T22:30:16.497Z,38.97
2018-12-13T22:32:45.990Z,38.90
2018-12-13T22:35:15.399Z,38.88
2018-12-13T22:37:44.803Z,38.82
2018-12-13T22:40:14.125Z,39.14
2018-12-13T22:42:43.344Z,39.18
2018-12-13T22:45:12.807Z,39.02
2018-12-13T22:47:42.228Z,39.05
2018-12-13T22:50:11.541Z,39.67
2018-12-13T22:52:40.927Z,40.20
2018-12-13T22:55:10.256Z,38.75
2018-12-13T22:57:39.724Z,39.57
2018-12-13T23:00:10.636Z,39.77
2018-12-13T23:02:39.980Z,39.83
2018-12-13T23:05:09.296Z,39.30
2018-12-13T23:07:38.562Z,39.70
2018-12-13T23:10:07.891Z,39.72
2018-12-13T23:12:37.379Z,39.57
2018-12-13T23:15:06.780Z,39.26
2018-12-13T23:17:36.224Z,39.63
2018-12-13T23:20:05.534Z,39.39
2018-12-13T23:22:34.821Z,39.78
2018-12-13T23:25:04.284Z,39.68
2018-12-13T23:27:33.719Z,39.74
2018-12-13T23:30:03.140Z,39.19
2018-12-13T23:32:32.441Z,39.74
2018-12-13T23:35:01.732Z,39.49
2018-12-13T23:37:31.201Z,39.57
2018-12-13T23:40:00.711Z,39.74
2018-12-13T23:42:30.114Z,39.18
2018-12-13T23:44:59.559Z,39.72
2018-12-13T23:47:28.858Z,39.41
2018-12-13T23:49:58.321Z,39.72
2018-12-13T23:52:27.823Z,39.59
2018-12-13T23:54:57.297Z,39.18
2018-12-13T23:57:26.643Z,39.23
2018-12-13T23:59:56.060Z,39.47
